Time;durP1;ratioP1;P1;durP2;ratioP2;P2;SDS_P1;SDS_P2;PMS_P1;PMS_P2;Temp;Humidity;BMP_temperature;BMP_pressure;BME280_temperature;BME280_humidity;BME280_pressure;Samples;Min_cycle;Max_cycle;Signal;HPM_P1;HPM_P2
2021/01/24 00:01:29;;;;;;;0.20;0.20;;;;;;;;;;5019501;28;20212;-70
2021/01/24 00:03:55;;;;;;;0.20;0.20;;;;;;;;;;5023415;28;20503;-71
2021/01/24 00:06:22;;;;;;;0.20;0.20;;;;;;;;;;5006008;28;20231;-72
2021/01/24 00:08:49;;;;;;;0.20;0.20;;;;;;;;;;5022855;28;20196;-70
2021/01/24 00:11:16;;;;;;;0.20;0.20;;;;;;;;;;5024167;28;20242;-70
2021/01/24 00:13:43;;;;;;;0.53;0.53;;;;;;;;;;5019909;28;20204;-71
2021/01/24 00:16:10;;;;;;;0.40;0.30;;;;;;;;;;5014673;28;20205;-70
2021/01/24 00:18:36;;;;;;;0.20;0.20;;;;;;;;;;5021607;28;20259;-70
2021/01/24 00:21:03;;;;;;;0.63;0.43;;;;;;;;;;5021879;28;20236;-70
2021/01/24 00:23:29;;;;;;;0.20;0.20;;;;;;;;;;5024408;28;20201;-70
2021/01/24 00:25:55;;;;;;;0.20;0.20;;;;;;;;;;5007143;28;20203;-70
2021/01/24 00:28:22;;;;;;;0.20;0.20;;;;;;;;;;5043028;28;20197;-70
2021/01/24 00:30:50;;;;;;;0.20;0.20;;;;;;;;;;5010904;28;20495;-70
2021/01/24 00:33:16;;;;;;;0.20;0.20;;;;;;;;;;5022123;28;20400;-70
2021/01/24 00:35:43;;;;;;;0.30;0.30;;;;;;;;;;5004622;28;20197;-70
2021/01/24 00:38:10;;;;;;;0.20;0.20;;;;;;;;;;5021154;28;20220;-70
2021/01/24 00:40:36;;;;;;;0.93;0.93;;;;;;;;;;5026750;28;20227;-70
2021/01/24 00:43:03;;;;;;;0.20;0.20;;;;;;;;;;5021927;28;20299;-70
2021/01/24 00:45:30;;;;;;;0.27;0.27;;;;;;;;;;5024213;28;20197;-69
2021/01/24 00:47:57;;;;;;;0.43;0.43;;;;;;;;;;5004890;28;20212;-69
2021/01/24 00:50:23;;;;;;;0.30;0.30;;;;;;;;;;5018835;28;20207;-69
2021/01/24 00:52:50;;;;;;;0.57;0.57;;;;;;;;;;5011140;28;20523;-69
2021/01/24 00:55:17;;;;;;;0.20;0.20;;;;;;;;;;5027099;28;20201;-69
2021/01/24 00:57:43;;;;;;;0.30;0.30;;;;;;;;;;5017101;28;20475;-69
2021/01/24 01:00:10;;;;;;;0.20;0.20;;;;;;;;;;5026721;28;20295;-69
2021/01/24 01:02:36;;;;;;;0.20;0.20;;;;;;;;;;5017589;28;20447;-68
2021/01/24 01:05:05;;;;;;;0.20;0.20;;;;;;;;;;5024720;28;20466;-70
2021/01/24 01:07:32;;;;;;;0.30;0.30;;;;;;;;;;5027153;28;20197;-70
2021/01/24 01:09:58;;;;;;;0.20;0.20;;;;;;;;;;5027737;28;20220;-70
2021/01/24 01:12:25;;;;;;;0.30;0.30;;;;;;;;;;5010352;28;20219;-70
2021/01/24 01:14:51;;;;;;;0.20;0.20;;;;;;;;;;5024835;28;20204;-69
2021/01/24 01:17:18;;;;;;;0.20;0.20;;;;;;;;;;5021800;28;20220;-69
2021/01/24 01:19:44;;;;;;;0.20;0.20;;;;;;;;;;5026171;28;20458;-72
2021/01/24 01:22:11;;;;;;;0.20;0.20;;;;;;;;;;5007495;28;20271;-70
2021/01/24 01:24:38;;;;;;;0.20;0.20;;;;;;;;;;5026284;28;20200;-69
2021/01/24 01:27:04;;;;;;;0.20;0.20;;;;;;;;;;5025015;28;20203;-68
2021/01/24 01:29:31;;;;;;;0.27;0.27;;;;;;;;;;5014043;28;20225;-70
2021/01/24 01:31:57;;;;;;;0.30;0.30;;;;;;;;;;5026494;28;20201;-69
2021/01/24 01:34:23;;;;;;;0.60;0.60;;;;;;;;;;5007164;28;20240;-69
2021/01/24 01:36:50;;;;;;;0.20;0.20;;;;;;;;;;5028017;28;20432;-69
2021/01/24 01:39:17;;;;;;;0.30;0.30;;;;;;;;;;5007448;28;20229;-68
2021/01/24 01:41:44;;;;;;;0.20;0.20;;;;;;;;;;5025996;28;20200;-69
2021/01/24 01:44:10;;;;;;;0.23;0.23;;;;;;;;;;5043051;28;20232;-69
2021/01/24 01:46:37;;;;;;;0.70;0.70;;;;;;;;;;5021953;28;20211;-69
2021/01/24 01:49:03;;;;;;;0.33;0.33;;;;;;;;;;5030439;28;20217;-69
2021/01/24 01:51:29;;;;;;;0.30;0.30;;;;;;;;;;5023069;28;20283;-69
2021/01/24 01:53:56;;;;;;;0.93;0.60;;;;;;;;;;5027736;28;20201;-69
2021/01/24 01:56:23;;;;;;;0.50;0.50;;;;;;;;;;5026618;28;20201;-69
2021/01/24 01:58:49;;;;;;;0.30;0.30;;;;;;;;;;5027316;28;20231;-70
2021/01/24 02:01:19;;;;;;;0.30;0.30;;;;;;;;;;5024320;28;20197;-70
2021/01/24 02:03:50;;;;;;;0.30;0.30;;;;;;;;;;5026480;28;20302;-70
2021/01/24 02:06:21;;;;;;;0.20;0.20;;;;;;;;;;5026427;28;20280;-70
2021/01/24 02:08:54;;;;;;;0.63;0.63;;;;;;;;;;5024506;28;20228;-70
2021/01/24 02:11:24;;;;;;;0.20;0.20;;;;;;;;;;5042472;28;20212;-71
2021/01/24 02:13:55;;;;;;;0.20;0.20;;;;;;;;;;5024131;28;20204;-70
2021/01/24 02:16:22;;;;;;;3.50;3.30;;;;;;;;;;5026819;28;20197;-69
2021/01/24 02:18:50;;;;;;;0.20;0.20;;;;;;;;;;5025030;28;20507;-69
2021/01/24 02:21:23;;;;;;;0.20;0.20;;;;;;;;;;5026586;28;20223;-69
2021/01/24 02:23:51;;;;;;;0.30;0.30;;;;;;;;;;5027251;28;20448;-69
2021/01/24 02:26:20;;;;;;;0.20;0.20;;;;;;;;;;5025787;28;20201;-70
2021/01/24 02:28:54;;;;;;;0.20;0.20;;;;;;;;;;5041988;28;20200;-69
2021/01/24 02:31:21;;;;;;;0.23;0.23;;;;;;;;;;5045132;28;20508;-69
2021/01/24 02:33:48;;;;;;;0.20;0.20;;;;;;;;;;5044631;28;20275;-69
2021/01/24 02:36:16;;;;;;;4.00;2.83;;;;;;;;;;5004378;28;20240;-69
2021/01/24 02:38:43;;;;;;;0.30;0.30;;;;;;;;;;5019287;28;20291;-70
2021/01/24 02:41:10;;;;;;;0.30;0.30;;;;;;;;;;5011877;28;20276;-70
2021/01/24 02:43:37;;;;;;;0.30;0.30;;;;;;;;;;5024441;28;20263;-69
2021/01/24 02:46:04;;;;;;;0.30;0.30;;;;;;;;;;5041693;28;20239;-69
2021/01/24 02:48:32;;;;;;;0.20;0.20;;;;;;;;;;5016601;28;20269;-70
2021/01/24 02:50:58;;;;;;;0.30;0.30;;;;;;;;;;4998010;28;20207;-70
2021/01/24 02:53:25;;;;;;;1.70;1.60;;;;;;;;;;5008796;28;20255;-69
2021/01/24 02:55:52;;;;;;;0.20;0.20;;;;;;;;;;5025719;28;20503;-70
2021/01/24 02:58:19;;;;;;;0.30;0.30;;;;;;;;;;5025713;28;20216;-70
2021/01/24 03:00:45;;;;;;;0.20;0.20;;;;;;;;;;5008737;28;20375;-70
2021/01/24 03:03:12;;;;;;;0.20;0.20;;;;;;;;;;5006130;28;20208;-69
2021/01/24 03:05:39;;;;;;;0.20;0.20;;;;;;;;;;5021515;28;20338;-69
2021/01/24 03:08:06;;;;;;;0.20;0.20;;;;;;;;;;5004828;28;20192;-69
2021/01/24 03:10:32;;;;;;;0.20;0.20;;;;;;;;;;5004564;28;20550;-70
2021/01/24 03:13:03;;;;;;;0.30;0.30;;;;;;;;;;5006800;28;20414;-69
2021/01/24 03:15:30;;;;;;;0.20;0.20;;;;;;;;;;5024538;28;20196;-69
2021/01/24 03:17:58;;;;;;;0.20;0.20;;;;;;;;;;5022431;28;20236;-69
2021/01/24 03:20:25;;;;;;;0.20;0.20;;;;;;;;;;5005943;28;20223;-70
2021/01/24 03:22:53;;;;;;;0.20;0.20;;;;;;;;;;5004026;28;20535;-70
2021/01/24 03:25:19;;;;;;;0.20;0.20;;;;;;;;;;5038784;28;20455;-70
2021/01/24 03:27:45;;;;;;;0.37;0.37;;;;;;;;;;5017297;28;20204;-70
2021/01/24 03:30:12;;;;;;;0.20;0.20;;;;;;;;;;5024357;28;20201;-69
2021/01/24 03:32:39;;;;;;;0.23;0.23;;;;;;;;;;5020743;28;20208;-69
2021/01/24 03:35:06;;;;;;;0.20;0.20;;;;;;;;;;5024819;28;20235;-69
2021/01/24 03:37:32;;;;;;;0.20;0.20;;;;;;;;;;5017549;28;20224;-69
2021/01/24 03:40:00;;;;;;;0.23;0.23;;;;;;;;;;5005515;28;20197;-68
2021/01/24 03:42:28;;;;;;;0.20;0.20;;;;;;;;;;5005824;28;20243;-70
2021/01/24 03:44:54;;;;;;;0.60;0.60;;;;;;;;;;5004663;28;20208;-70
2021/01/24 03:47:21;;;;;;;0.20;0.20;;;;;;;;;;5002647;28;20206;-69
2021/01/24 03:49:47;;;;;;;0.20;0.20;;;;;;;;;;5021535;28;20500;-70
2021/01/24 03:52:14;;;;;;;0.20;0.20;;;;;;;;;;5021854;28;20208;-70
2021/01/24 03:54:40;;;;;;;0.20;0.20;;;;;;;;;;5005825;28;20204;-69
2021/01/24 03:57:07;;;;;;;0.20;0.20;;;;;;;;;;5023408;28;20575;-69
2021/01/24 03:59:33;;;;;;;0.20;0.20;;;;;;;;;;5006068;28;20205;-69
2021/01/24 04:02:00;;;;;;;0.23;0.23;;;;;;;;;;5041661;28;20207;-69
2021/01/24 04:04:26;;;;;;;0.20;0.20;;;;;;;;;;5022252;28;20276;-69
2021/01/24 04:06:53;;;;;;;0.20;0.20;;;;;;;;;;5005713;28;20212;-69
2021/01/24 04:09:19;;;;;;;0.20;0.20;;;;;;;;;;5006015;28;20196;-68
2021/01/24 04:11:46;;;;;;;0.20;0.20;;;;;;;;;;5005214;28;20201;-68
2021/01/24 04:14:13;;;;;;;0.20;0.20;;;;;;;;;;5008351;28;20243;-71
2021/01/24 04:16:39;;;;;;;0.27;0.27;;;;;;;;;;5027953;28;20201;-69
2021/01/24 04:19:06;;;;;;;0.20;0.20;;;;;;;;;;5009368;28;20303;-69
2021/01/24 04:21:32;;;;;;;4.80;4.50;;;;;;;;;;5027864;28;20232;-70
2021/01/24 04:23:58;;;;;;;0.20;0.20;;;;;;;;;;5004728;28;20433;-69
2021/01/24 04:26:25;;;;;;;0.20;0.20;;;;;;;;;;5028306;28;20238;-68
2021/01/24 04:28:51;;;;;;;0.20;0.20;;;;;;;;;;5009206;28;20247;-69
2021/01/24 04:31:18;;;;;;;0.20;0.20;;;;;;;;;;5009271;28;20247;-69
2021/01/24 04:33:45;;;;;;;0.20;0.20;;;;;;;;;;5008278;28;20205;-69
2021/01/24 04:36:11;;;;;;;0.20;0.20;;;;;;;;;;5010149;28;20228;-69
2021/01/24 04:38:38;;;;;;;0.20;0.20;;;;;;;;;;5008768;28;20251;-70
2021/01/24 04:41:04;;;;;;;0.20;0.20;;;;;;;;;;5009797;28;20247;-69
2021/01/24 04:43:31;;;;;;;0.20;0.20;;;;;;;;;;5024539;28;20236;-72
2021/01/24 04:45:58;;;;;;;0.20;0.20;;;;;;;;;;5008940;28;20200;-69
2021/01/24 04:48:26;;;;;;;0.20;0.20;;;;;;;;;;5012582;28;20199;-69
2021/01/24 04:50:52;;;;;;;0.20;0.20;;;;;;;;;;5025056;28;20276;-69
2021/01/24 04:53:19;;;;;;;0.20;0.20;;;;;;;;;;5023818;28;20248;-69
2021/01/24 04:55:45;;;;;;;0.20;0.20;;;;;;;;;;5023626;28;20388;-71
2021/01/24 04:58:12;;;;;;;0.30;0.30;;;;;;;;;;5011416;28;20223;-70
2021/01/24 05:00:38;;;;;;;0.20;0.20;;;;;;;;;;5021342;28;20228;-71
2021/01/24 05:03:05;;;;;;;0.20;0.20;;;;;;;;;;5008726;28;20244;-70
2021/01/24 05:05:32;;;;;;;0.20;0.20;;;;;;;;;;5010283;28;20215;-70
2021/01/24 05:08:00;;;;;;;0.20;0.20;;;;;;;;;;5021521;28;20224;-70
2021/01/24 05:10:26;;;;;;;0.20;0.20;;;;;;;;;;5006248;28;20240;-70
2021/01/24 05:12:53;;;;;;;0.50;0.50;;;;;;;;;;5025325;28;20208;-70
2021/01/24 05:15:20;;;;;;;0.20;0.20;;;;;;;;;;5009205;28;20236;-70
2021/01/24 05:17:50;;;;;;;0.20;0.20;;;;;;;;;;5022718;28;20212;-69
2021/01/24 05:20:17;;;;;;;0.20;0.20;;;;;;;;;;5024525;28;20200;-70
2021/01/24 05:22:45;;;;;;;0.20;0.20;;;;;;;;;;5007029;28;20200;-69
2021/01/24 05:25:12;;;;;;;0.20;0.20;;;;;;;;;;5007421;28;20515;-70
2021/01/24 05:27:38;;;;;;;0.20;0.20;;;;;;;;;;5025928;28;20235;-70
2021/01/24 05:30:05;;;;;;;0.20;0.20;;;;;;;;;;5008568;28;20204;-70
2021/01/24 05:32:40;;;;;;;0.20;0.20;;;;;;;;;;5024702;28;20197;-71
2021/01/24 05:35:09;;;;;;;0.20;0.20;;;;;;;;;;5025460;28;20232;-69
2021/01/24 05:37:36;;;;;;;1.27;1.27;;;;;;;;;;5035696;28;20224;-70
2021/01/24 05:40:04;;;;;;;0.20;0.20;;;;;;;;;;5008249;28;20279;-69
2021/01/24 05:42:33;;;;;;;0.20;0.20;;;;;;;;;;5024726;28;20238;-69
2021/01/24 05:44:59;;;;;;;0.20;0.20;;;;;;;;;;5024292;28;20244;-70
2021/01/24 05:47:26;;;;;;;0.20;0.20;;;;;;;;;;5024805;28;20232;-70
2021/01/24 05:49:52;;;;;;;0.20;0.20;;;;;;;;;;5024695;28;20280;-70
2021/01/24 05:52:19;;;;;;;0.67;0.67;;;;;;;;;;5007666;28;20199;-68
2021/01/24 05:54:46;;;;;;;0.20;0.20;;;;;;;;;;5019895;28;20221;-69
2021/01/24 05:57:14;;;;;;;0.20;0.20;;;;;;;;;;5006663;28;20197;-70
2021/01/24 05:59:48;;;;;;;0.20;0.20;;;;;;;;;;5026109;28;20280;-70
2021/01/24 06:02:14;;;;;;;0.20;0.20;;;;;;;;;;5018877;28;20228;-70
2021/01/24 06:04:41;;;;;;;0.20;0.20;;;;;;;;;;5006981;28;20196;-70
2021/01/24 06:07:08;;;;;;;0.40;0.40;;;;;;;;;;5006548;28;20240;-70
2021/01/24 06:09:34;;;;;;;0.20;0.20;;;;;;;;;;5005610;28;20201;-69
2021/01/24 06:12:02;;;;;;;0.20;0.20;;;;;;;;;;5020598;28;20204;-70
2021/01/24 06:14:29;;;;;;;0.20;0.20;;;;;;;;;;5023721;28;20212;-70
2021/01/24 06:16:58;;;;;;;0.20;0.20;;;;;;;;;;5007903;28;20224;-70
2021/01/24 06:19:28;;;;;;;0.40;0.40;;;;;;;;;;5023516;28;20423;-69
2021/01/24 06:21:56;;;;;;;0.20;0.20;;;;;;;;;;5024303;28;20196;-69
2021/01/24 06:24:26;;;;;;;0.20;0.20;;;;;;;;;;5007245;28;20224;-69
2021/01/24 06:26:55;;;;;;;0.20;0.20;;;;;;;;;;5021658;28;20236;-69
2021/01/24 06:29:21;;;;;;;0.20;0.20;;;;;;;;;;5025981;28;20207;-70
2021/01/24 06:31:49;;;;;;;0.20;0.20;;;;;;;;;;5022131;28;20209;-71
2021/01/24 06:34:16;;;;;;;0.20;0.20;;;;;;;;;;5022966;28;20488;-71
2021/01/24 06:36:57;;;;;;;0.20;0.20;;;;;;;;;;5024700;28;20239;-71
2021/01/24 06:39:27;;;;;;;0.20;0.20;;;;;;;;;;5024816;28;20247;-69
2021/01/24 06:41:54;;;;;;;0.20;0.20;;;;;;;;;;5020715;28;20225;-69
2021/01/24 06:44:33;;;;;;;0.20;0.20;;;;;;;;;;5005545;28;20232;-69
2021/01/24 06:47:00;;;;;;;0.23;0.23;;;;;;;;;;5022231;28;20503;-69
2021/01/24 06:49:37;;;;;;;0.20;0.20;;;;;;;;;;5018727;28;20435;-69
2021/01/24 06:52:17;;;;;;;0.20;0.20;;;;;;;;;;5005444;28;20232;-69
2021/01/24 06:54:43;;;;;;;0.20;0.20;;;;;;;;;;4999349;28;20232;-70
2021/01/24 06:57:10;;;;;;;0.20;0.20;;;;;;;;;;5022724;28;20231;-70
2021/01/24 06:59:36;;;;;;;0.20;0.20;;;;;;;;;;5019905;28;20255;-69
2021/01/24 07:02:24;;;;;;;0.30;0.30;;;;;;;;;;5005079;28;20500;-69
2021/01/24 07:05:10;;;;;;;0.27;0.27;;;;;;;;;;5023504;28;20280;-70
2021/01/24 07:07:37;;;;;;;0.20;0.20;;;;;;;;;;5039223;28;20200;-69
2021/01/24 07:10:08;;;;;;;0.20;0.20;;;;;;;;;;5021367;28;20228;-67
2021/01/24 07:12:41;;;;;;;0.20;0.20;;;;;;;;;;5007900;28;20515;-66
2021/01/24 07:15:11;;;;;;;0.20;0.20;;;;;;;;;;5040280;28;20208;-67
2021/01/24 07:17:38;;;;;;;0.20;0.20;;;;;;;;;;5025142;28;20250;-70
2021/01/24 07:20:06;;;;;;;0.20;0.20;;;;;;;;;;5036314;28;20212;-70
2021/01/24 07:22:33;;;;;;;0.20;0.20;;;;;;;;;;5007272;28;20231;-70
2021/01/24 07:25:00;;;;;;;0.20;0.20;;;;;;;;;;5004881;28;20239;-69
2021/01/24 07:27:28;;;;;;;0.20;0.20;;;;;;;;;;5000165;28;20200;-71
2021/01/24 07:29:54;;;;;;;0.20;0.20;;;;;;;;;;5006309;28;20204;-71
2021/01/24 07:32:21;;;;;;;0.20;0.20;;;;;;;;;;5015839;28;20347;-70
2021/01/24 07:34:49;;;;;;;0.20;0.20;;;;;;;;;;5004114;28;20583;-71
2021/01/24 07:37:16;;;;;;;0.20;0.20;;;;;;;;;;5025080;28;20212;-72
2021/01/24 07:39:42;;;;;;;0.20;0.20;;;;;;;;;;5024387;28;20295;-69
2021/01/24 07:42:09;;;;;;;0.20;0.20;;;;;;;;;;5018476;28;20250;-70
2021/01/24 07:44:35;;;;;;;0.20;0.20;;;;;;;;;;5021133;28;20254;-70
2021/01/24 07:47:02;;;;;;;0.20;0.20;;;;;;;;;;5005028;28;20228;-70
2021/01/24 07:49:29;;;;;;;0.27;0.27;;;;;;;;;;5018490;28;20306;-70
2021/01/24 07:51:56;;;;;;;0.20;0.20;;;;;;;;;;5001816;28;20200;-70
2021/01/24 07:54:22;;;;;;;0.30;0.30;;;;;;;;;;5019651;28;20271;-71
2021/01/24 07:56:49;;;;;;;0.20;0.20;;;;;;;;;;5020793;28;20200;-69
2021/01/24 07:59:16;;;;;;;0.30;0.30;;;;;;;;;;5018385;28;20220;-70
2021/01/24 08:01:42;;;;;;;0.20;0.20;;;;;;;;;;5020587;28;20208;-71
2021/01/24 08:04:09;;;;;;;0.20;0.20;;;;;;;;;;5003471;28;20235;-69
2021/01/24 08:06:36;;;;;;;0.20;0.20;;;;;;;;;;5003108;28;20198;-70
2021/01/24 08:09:05;;;;;;;0.20;0.20;;;;;;;;;;5023434;28;20402;-70
2021/01/24 08:11:31;;;;;;;0.20;0.20;;;;;;;;;;5017377;28;20503;-70
2021/01/24 08:13:58;;;;;;;0.30;0.30;;;;;;;;;;5006614;28;20278;-69
2021/01/24 08:16:26;;;;;;;0.77;0.77;;;;;;;;;;5026046;28;20196;-70
2021/01/24 08:18:53;;;;;;;0.20;0.20;;;;;;;;;;5040946;28;20248;-70
2021/01/24 08:21:20;;;;;;;0.20;0.20;;;;;;;;;;5048501;28;20227;-70
2021/01/24 08:23:46;;;;;;;0.20;0.20;;;;;;;;;;5024477;28;20208;-71
2021/01/24 08:26:14;;;;;;;0.20;0.20;;;;;;;;;;5018767;28;20209;-70
2021/01/24 08:28:41;;;;;;;0.20;0.20;;;;;;;;;;5022210;28;20228;-70
2021/01/24 08:31:08;;;;;;;0.20;0.20;;;;;;;;;;5003268;28;20201;-71
2021/01/24 08:33:34;;;;;;;0.20;0.20;;;;;;;;;;5003961;28;20435;-70
2021/01/24 08:36:11;;;;;;;0.20;0.20;;;;;;;;;;5019483;28;20203;-71
2021/01/24 08:38:38;;;;;;;0.20;0.20;;;;;;;;;;5021109;28;20295;-71
2021/01/24 08:41:04;;;;;;;0.20;0.20;;;;;;;;;;5005151;28;20254;-71
2021/01/24 08:43:31;;;;;;;0.20;0.20;;;;;;;;;;5020696;28;20232;-71
2021/01/24 08:46:12;;;;;;;0.20;0.20;;;;;;;;;;5023151;28;20201;-72
2021/01/24 08:48:39;;;;;;;0.23;0.23;;;;;;;;;;5020676;28;20239;-71
2021/01/24 08:51:05;;;;;;;0.20;0.20;;;;;;;;;;5019417;28;20430;-71
2021/01/24 08:53:32;;;;;;;0.30;0.30;;;;;;;;;;5018524;28;20270;-70
2021/01/24 08:55:59;;;;;;;0.20;0.20;;;;;;;;;;5014399;28;20196;-70
2021/01/24 08:58:25;;;;;;;0.30;0.30;;;;;;;;;;5006728;28;20221;-70
2021/01/24 09:01:02;;;;;;;0.20;0.20;;;;;;;;;;5024513;28;20208;-70
2021/01/24 09:03:29;;;;;;;0.23;0.23;;;;;;;;;;5040376;28;20246;-71
2021/01/24 09:06:12;;;;;;;0.20;0.20;;;;;;;;;;5024630;28;20279;-70
2021/01/24 09:08:43;;;;;;;0.30;0.30;;;;;;;;;;5026581;28;20196;-71
2021/01/24 09:11:10;;;;;;;0.20;0.20;;;;;;;;;;5021653;28;20216;-71
2021/01/24 09:13:36;;;;;;;0.20;0.20;;;;;;;;;;5007772;28;20262;-71
2021/01/24 09:16:04;;;;;;;0.20;0.20;;;;;;;;;;5008611;28;20514;-71
2021/01/24 09:18:31;;;;;;;0.20;0.20;;;;;;;;;;5021745;28;20264;-71
2021/01/24 09:20:57;;;;;;;0.20;0.20;;;;;;;;;;5008490;28;20200;-72
2021/01/24 09:23:24;;;;;;;0.30;0.30;;;;;;;;;;5021969;28;20204;-71
2021/01/24 09:25:50;;;;;;;0.20;0.20;;;;;;;;;;5020770;28;20201;-71
2021/01/24 09:28:17;;;;;;;0.20;0.20;;;;;;;;;;5004335;28;20200;-71
2021/01/24 09:30:43;;;;;;;0.20;0.20;;;;;;;;;;5008131;28;20204;-71
2021/01/24 09:33:11;;;;;;;0.20;0.20;;;;;;;;;;5022513;28;20542;-70
2021/01/24 09:35:38;;;;;;;0.20;0.20;;;;;;;;;;5008262;28;20210;-71
2021/01/24 09:38:04;;;;;;;0.20;0.20;;;;;;;;;;5007870;28;20240;-72
2021/01/24 09:40:31;;;;;;;0.20;0.20;;;;;;;;;;5008295;28;20334;-72
2021/01/24 09:42:57;;;;;;;0.20;0.20;;;;;;;;;;5028031;28;20234;-72
2021/01/24 09:45:24;;;;;;;0.20;0.20;;;;;;;;;;5020932;28;20204;-71
2021/01/24 09:47:51;;;;;;;0.27;0.27;;;;;;;;;;5007929;28;20444;-71
2021/01/24 09:50:18;;;;;;;0.20;0.20;;;;;;;;;;5007677;28;20315;-71
2021/01/24 09:52:45;;;;;;;0.20;0.20;;;;;;;;;;5025610;28;20278;-70
2021/01/24 09:55:12;;;;;;;0.20;0.20;;;;;;;;;;5002802;28;20239;-71
2021/01/24 09:57:38;;;;;;;0.20;0.20;;;;;;;;;;5022564;28;20266;-70
2021/01/24 10:00:06;;;;;;;0.20;0.20;;;;;;;;;;5021270;28;20214;-71
2021/01/24 10:02:32;;;;;;;0.20;0.20;;;;;;;;;;5008108;28;20232;-70
2021/01/24 10:04:59;;;;;;;0.20;0.20;;;;;;;;;;5006941;28;20315;-71
2021/01/24 10:07:26;;;;;;;0.20;0.20;;;;;;;;;;5006914;28;20207;-71
2021/01/24 10:09:53;;;;;;;0.27;0.27;;;;;;;;;;5017847;28;20369;-71
2021/01/24 10:48:31;;;;;;;0.20;0.20;;;;;;;;;;5548693;22;20519;-67
2021/01/24 10:53:38;;;;;;;0.20;0.20;;;;;;;;;;5917016;22;20522;-70
2021/01/24 10:56:05;;;;;;;0.20;0.20;;;;;;;;;;5012820;28;20196;-71
2021/01/24 10:58:32;;;;;;;0.20;0.20;;;;;;;;;;5007900;28;20251;-71
2021/01/24 11:00:59;;;;;;;0.20;0.20;;;;;;;;;;5008933;28;20197;-72
2021/01/24 11:03:25;;;;;;;0.20;0.20;;;;;;;;;;5011607;28;20235;-74
2021/01/24 11:13:38;;;;;;;0.20;0.20;;;;;;;;;;5237134;22;20251;-73
2021/01/24 11:16:05;;;;;;;0.20;0.20;;;;;;;;;;5004715;28;20192;-72
2021/01/24 11:18:31;;;;;;;0.20;0.20;;;;;;;;;;5005786;28;20217;-73
2021/01/24 11:23:33;;;;;;;0.20;0.20;;;;;;;;;;5458554;22;20237;-76
2021/01/24 11:25:59;;;;;;;2.67;2.57;;;;;;;;;;4984034;28;20285;-77
2021/01/24 11:28:26;;;;;;;0.20;0.20;;;;;;;;;;4998400;28;20204;-76
2021/01/24 11:30:53;;;;;;;0.23;0.23;;;;;;;;;;4985936;28;20270;-75
2021/01/24 11:33:20;;;;;;;0.20;0.20;;;;;;;;;;4988768;28;20472;-75
2021/01/24 11:35:46;;;;;;;0.20;0.20;;;;;;;;;;4977825;28;20221;-76
2021/01/24 11:38:13;;;;;;;0.30;0.30;;;;;;;;;;4981390;28;20256;-75
2021/01/24 11:40:39;;;;;;;0.80;0.80;;;;;;;;;;4977994;28;20492;-74
2021/01/24 11:43:06;;;;;;;7.40;6.87;;;;;;;;;;4982585;28;20411;-73
2021/01/24 11:45:32;;;;;;;1.67;1.63;;;;;;;;;;4983765;28;20201;-73
2021/01/24 11:48:01;;;;;;;0.20;0.20;;;;;;;;;;4986154;28;20205;-78
2021/01/24 11:50:28;;;;;;;0.20;0.20;;;;;;;;;;4986944;28;20236;-75
2021/01/24 11:52:54;;;;;;;0.30;0.30;;;;;;;;;;4984259;28;20208;-74
2021/01/24 11:55:21;;;;;;;0.30;0.30;;;;;;;;;;4984805;28;20233;-74
2021/01/24 11:57:47;;;;;;;0.60;0.60;;;;;;;;;;4980801;28;20201;-75
2021/01/24 12:00:14;;;;;;;0.20;0.20;;;;;;;;;;4980032;28;20205;-76
2021/01/24 12:02:41;;;;;;;0.20;0.20;;;;;;;;;;4978967;28;20273;-78
2021/01/24 12:05:09;;;;;;;0.20;0.20;;;;;;;;;;4985810;28;20202;-76
2021/01/24 12:07:36;;;;;;;0.20;0.20;;;;;;;;;;4987086;28;20211;-76
2021/01/24 12:10:03;;;;;;;0.20;0.20;;;;;;;;;;4987634;28;20198;-76
2021/01/24 12:12:29;;;;;;;0.20;0.20;;;;;;;;;;4974896;28;20194;-75
2021/01/24 12:14:56;;;;;;;0.20;0.20;;;;;;;;;;4990635;28;20202;-77
2021/01/24 12:17:24;;;;;;;0.20;0.20;;;;;;;;;;4993269;28;20202;-75
2021/01/24 12:19:50;;;;;;;0.20;0.20;;;;;;;;;;4996214;28;20229;-75
2021/01/24 12:22:17;;;;;;;0.73;0.73;;;;;;;;;;4977127;28;20229;-77
2021/01/24 12:24:44;;;;;;;0.20;0.20;;;;;;;;;;4984813;28;20202;-74
2021/01/24 12:27:10;;;;;;;0.20;0.20;;;;;;;;;;4969450;28;20206;-77
2021/01/24 12:29:37;;;;;;;0.20;0.20;;;;;;;;;;4985401;28;20194;-79
2021/01/24 12:32:04;;;;;;;0.20;0.20;;;;;;;;;;4971040;28;20228;-78
2021/01/24 12:34:30;;;;;;;0.20;0.20;;;;;;;;;;4967363;28;20199;-78
2021/01/24 12:36:57;;;;;;;0.20;0.20;;;;;;;;;;4972991;28;20197;-76
2021/01/24 12:39:24;;;;;;;0.20;0.20;;;;;;;;;;4971365;28;20229;-77
2021/01/24 12:41:51;;;;;;;0.20;0.20;;;;;;;;;;4971731;28;20210;-79
2021/01/24 12:44:17;;;;;;;0.20;0.20;;;;;;;;;;4969846;28;20202;-74
2021/01/24 12:46:45;;;;;;;0.20;0.20;;;;;;;;;;4970550;28;20424;-77
2021/01/24 12:49:12;;;;;;;0.20;0.20;;;;;;;;;;4989805;28;20205;-77
2021/01/24 12:51:39;;;;;;;0.20;0.20;;;;;;;;;;4974708;28;20209;-78
2021/01/24 12:54:06;;;;;;;0.20;0.20;;;;;;;;;;4979604;28;20243;-78
2021/01/24 12:56:34;;;;;;;0.20;0.20;;;;;;;;;;5005525;28;20206;-77
2021/01/24 12:59:00;;;;;;;0.20;0.20;;;;;;;;;;4971435;28;20249;-78
2021/01/24 13:01:27;;;;;;;0.20;0.20;;;;;;;;;;4970393;28;20209;-77
2021/01/24 13:03:54;;;;;;;0.20;0.20;;;;;;;;;;4970746;28;20230;-79
2021/01/24 13:06:21;;;;;;;0.20;0.20;;;;;;;;;;4969930;28;20528;-79
2021/01/24 13:08:48;;;;;;;0.20;0.20;;;;;;;;;;4972537;28;20190;-78
2021/01/24 13:11:18;;;;;;;0.20;0.20;;;;;;;;;;4969128;28;20206;-77
2021/01/24 13:13:45;;;;;;;0.20;0.20;;;;;;;;;;4987748;28;20249;-78
2021/01/24 13:16:11;;;;;;;0.27;0.27;;;;;;;;;;4987482;28;20210;-77
2021/01/24 13:18:38;;;;;;;0.30;0.30;;;;;;;;;;4987757;28;20245;-77
2021/01/24 13:21:05;;;;;;;0.30;0.30;;;;;;;;;;4971844;28;20312;-78
2021/01/24 13:23:31;;;;;;;0.20;0.20;;;;;;;;;;4971209;28;20269;-77
2021/01/24 13:25:58;;;;;;;0.20;0.20;;;;;;;;;;4976143;28;20208;-75
2021/01/24 13:28:24;;;;;;;0.20;0.20;;;;;;;;;;4988117;28;20218;-77
2021/01/24 13:30:52;;;;;;;0.20;0.20;;;;;;;;;;4965321;28;20392;-77
2021/01/24 13:33:18;;;;;;;0.20;0.20;;;;;;;;;;4965100;28;20244;-73
2021/01/24 13:35:45;;;;;;;0.20;0.20;;;;;;;;;;4969479;28;20198;-77
2021/01/24 13:38:11;;;;;;;0.20;0.20;;;;;;;;;;4969213;28;20225;-77
2021/01/24 13:40:38;;;;;;;0.20;0.20;;;;;;;;;;4972065;28;20221;-77
2021/01/24 13:43:05;;;;;;;0.20;0.20;;;;;;;;;;4969281;28;20202;-75
2021/01/24 13:45:34;;;;;;;0.20;0.20;;;;;;;;;;4968122;28;20273;-77
2021/01/24 13:48:01;;;;;;;0.20;0.20;;;;;;;;;;4989171;28;20309;-75
2021/01/24 13:50:27;;;;;;;0.20;0.20;;;;;;;;;;4988086;28;20211;-78
2021/01/24 13:52:54;;;;;;;0.20;0.20;;;;;;;;;;4987178;28;20198;-78
2021/01/24 13:55:20;;;;;;;0.20;0.20;;;;;;;;;;4969287;28;20225;-78
2021/01/24 13:57:47;;;;;;;0.20;0.20;;;;;;;;;;4970815;28;20505;-78
2021/01/24 14:00:15;;;;;;;0.20;0.20;;;;;;;;;;4965323;28;20238;-78
2021/01/24 14:02:45;;;;;;;0.20;0.20;;;;;;;;;;4975715;28;20208;-77
2021/01/24 14:05:12;;;;;;;0.20;0.20;;;;;;;;;;5004665;28;20206;-78
2021/01/24 14:07:39;;;;;;;0.20;0.20;;;;;;;;;;4987794;28;20206;-74
2021/01/24 14:10:06;;;;;;;0.20;0.20;;;;;;;;;;4970839;28;20222;-77
2021/01/24 14:12:32;;;;;;;0.20;0.20;;;;;;;;;;4985624;28;20455;-76
2021/01/24 14:14:59;;;;;;;0.20;0.20;;;;;;;;;;4969870;28;20554;-76
2021/01/24 14:17:26;;;;;;;0.20;0.20;;;;;;;;;;4967563;28;20257;-78
2021/01/24 14:19:52;;;;;;;0.20;0.20;;;;;;;;;;4987376;28;20226;-77
2021/01/24 14:22:19;;;;;;;0.20;0.20;;;;;;;;;;4987808;28;20229;-78
2021/01/24 14:24:46;;;;;;;0.20;0.20;;;;;;;;;;4970205;28;20245;-77
2021/01/24 14:27:12;;;;;;;0.20;0.20;;;;;;;;;;4970922;28;20316;-77
2021/01/24 14:29:39;;;;;;;0.47;0.47;;;;;;;;;;4970015;28;20208;-77
2021/01/24 14:32:06;;;;;;;0.30;0.30;;;;;;;;;;4972193;28;20223;-78
2021/01/24 14:34:32;;;;;;;0.20;0.20;;;;;;;;;;4963783;28;20532;-77
2021/01/24 14:36:59;;;;;;;0.20;0.20;;;;;;;;;;4963014;28;20237;-75
2021/01/24 14:39:26;;;;;;;0.20;0.20;;;;;;;;;;4968860;28;20224;-76
2021/01/24 14:41:53;;;;;;;0.20;0.20;;;;;;;;;;4968952;28;20206;-78
2021/01/24 14:44:19;;;;;;;0.20;0.20;;;;;;;;;;4988181;28;20495;-75
2021/01/24 14:46:45;;;;;;;0.20;0.20;;;;;;;;;;4968361;28;20198;-75
2021/01/24 14:49:12;;;;;;;0.20;0.20;;;;;;;;;;4986566;28;20197;-76
2021/01/24 14:51:39;;;;;;;0.20;0.20;;;;;;;;;;4967939;28;20206;-78
2021/01/24 14:54:05;;;;;;;0.20;0.20;;;;;;;;;;4968770;28;20203;-77
2021/01/24 14:56:33;;;;;;;0.20;0.20;;;;;;;;;;4968871;28;20210;-77
2021/01/24 14:59:00;;;;;;;0.20;0.20;;;;;;;;;;4965881;28;20222;-75
2021/01/24 15:01:27;;;;;;;0.20;0.20;;;;;;;;;;4967730;28;20292;-74
2021/01/24 15:03:53;;;;;;;0.20;0.20;;;;;;;;;;4983282;28;20209;-75
2021/01/24 15:06:20;;;;;;;0.20;0.20;;;;;;;;;;4988684;28;20205;-74
2021/01/24 15:08:46;;;;;;;0.20;0.20;;;;;;;;;;4980976;28;20206;-76
2021/01/24 15:11:13;;;;;;;0.20;0.20;;;;;;;;;;4987243;28;20241;-76
2021/01/24 15:13:41;;;;;;;0.20;0.20;;;;;;;;;;4986884;28;20492;-78
2021/01/24 15:16:08;;;;;;;0.20;0.20;;;;;;;;;;4969049;28;20429;-76
2021/01/24 15:18:34;;;;;;;0.20;0.20;;;;;;;;;;4969402;28;20225;-77
2021/01/24 15:21:01;;;;;;;0.20;0.20;;;;;;;;;;4969390;28;20278;-77
2021/01/24 15:23:52;;;;;;;0.20;0.20;;;;;;;;;;4979254;28;20233;-77
2021/01/24 15:26:19;;;;;;;0.20;0.20;;;;;;;;;;4976788;28;20209;-77
2021/01/24 15:28:46;;;;;;;0.20;0.20;;;;;;;;;;4971106;28;20202;-77
2021/01/24 15:31:13;;;;;;;0.20;0.20;;;;;;;;;;4972043;28;20199;-77
2021/01/24 15:33:40;;;;;;;0.20;0.20;;;;;;;;;;4990302;28;20423;-74